sensor_id;sensor_type;location;lat;lon;timestamp;P1;durP1;ratioP1;P2;durP2;ratioP2
52650;SDS011;38537;47.226;39.702;2023-05-07T00:02:24;8.05;;;1.60;;
52650;SDS011;38537;47.226;39.702;2023-05-07T00:04:52;6.03;;;1.70;;
52650;SDS011;38537;47.226;39.702;2023-05-07T00:07:19;8.00;;;1.60;;
52650;SDS011;38537;47.226;39.702;2023-05-07T00:09:47;4.70;;;1.73;;
52650;SDS011;38537;47.226;39.702;2023-05-07T00:12:14;3.22;;;1.42;;
52650;SDS011;38537;47.226;39.702;2023-05-07T00:14:41;5.80;;;1.55;;
52650;SDS011;38537;47.226;39.702;2023-05-07T00:17:08;6.55;;;1.60;;
52650;SDS011;38537;47.226;39.702;2023-05-07T00:19:36;3.80;;;1.58;;
52650;SDS011;38537;47.226;39.702;2023-05-07T00:22:03;3.88;;;1.80;;
52650;SDS011;38537;47.226;39.702;2023-05-07T00:24:30;3.50;;;1.70;;
52650;SDS011;38537;47.226;39.702;2023-05-07T00:26:57;3.50;;;1.70;;
52650;SDS011;38537;47.226;39.702;2023-05-07T00:29:24;3.25;;;1.90;;
52650;SDS011;38537;47.226;39.702;2023-05-07T00:31:52;2.58;;;1.67;;
52650;SDS011;38537;47.226;39.702;2023-05-07T00:34:21;2.90;;;1.30;;
52650;SDS011;38537;47.226;39.702;2023-05-07T00:36:49;4.78;;;1.50;;
52650;SDS011;38537;47.226;39.702;2023-05-07T00:39:16;2.25;;;1.30;;
52650;SDS011;38537;47.226;39.702;2023-05-07T00:41:43;2.65;;;1.40;;
52650;SDS011;38537;47.226;39.702;2023-05-07T00:44:10;2.40;;;1.35;;
52650;SDS011;38537;47.226;39.702;2023-05-07T00:46:38;2.58;;;1.45;;
52650;SDS011;38537;47.226;39.702;2023-05-07T00:49:05;2.92;;;1.48;;
52650;SDS011;38537;47.226;39.702;2023-05-07T00:51:32;3.78;;;1.60;;
52650;SDS011;38537;47.226;39.702;2023-05-07T00:54:01;3.05;;;1.30;;
52650;SDS011;38537;47.226;39.702;2023-05-07T00:56:32;3.65;;;1.40;;
52650;SDS011;38537;47.226;39.702;2023-05-07T00:59:00;1.88;;;1.40;;
52650;SDS011;38537;47.226;39.702;2023-05-07T01:01:28;3.28;;;1.40;;
52650;SDS011;38537;47.226;39.702;2023-05-07T01:03:56;2.72;;;1.60;;
52650;SDS011;38537;47.226;39.702;2023-05-07T01:06:24;2.22;;;1.33;;
52650;SDS011;38537;47.226;39.702;2023-05-07T01:08:54;3.78;;;1.77;;
52650;SDS011;38537;47.226;39.702;2023-05-07T01:11:24;3.60;;;1.60;;
52650;SDS011;38537;47.226;39.702;2023-05-07T01:13:52;3.50;;;1.60;;
52650;SDS011;38537;47.226;39.702;2023-05-07T01:16:21;4.72;;;1.70;;
52650;SDS011;38537;47.226;39.702;2023-05-07T01:18:48;5.38;;;1.65;;
52650;SDS011;38537;47.226;39.702;2023-05-07T01:21:16;2.95;;;1.60;;
52650;SDS011;38537;47.226;39.702;2023-05-07T01:23:44;2.72;;;1.70;;
52650;SDS011;38537;47.226;39.702;2023-05-07T01:26:12;2.72;;;1.60;;
52650;SDS011;38537;47.226;39.702;2023-05-07T01:28:43;2.33;;;1.50;;
52650;SDS011;38537;47.226;39.702;2023-05-07T01:31:10;3.13;;;1.60;;
52650;SDS011;38537;47.226;39.702;2023-05-07T01:33:40;3.47;;;1.50;;
52650;SDS011;38537;47.226;39.702;2023-05-07T01:36:11;4.28;;;1.65;;
52650;SDS011;38537;47.226;39.702;2023-05-07T01:38:40;6.20;;;1.80;;
52650;SDS011;38537;47.226;39.702;2023-05-07T01:41:08;3.72;;;1.60;;
52650;SDS011;38537;47.226;39.702;2023-05-07T01:43:35;1.95;;;1.60;;
52650;SDS011;38537;47.226;39.702;2023-05-07T01:46:03;2.75;;;1.88;;
52650;SDS011;38537;47.226;39.702;2023-05-07T01:48:32;6.35;;;1.70;;
52650;SDS011;38537;47.226;39.702;2023-05-07T01:51:00;4.72;;;1.60;;
52650;SDS011;38537;47.226;39.702;2023-05-07T01:53:28;3.35;;;1.90;;
52650;SDS011;38537;47.226;39.702;2023-05-07T01:55:55;7.13;;;2.30;;
52650;SDS011;38537;47.226;39.702;2023-05-07T01:58:24;3.58;;;2.03;;
52650;SDS011;38537;47.226;39.702;2023-05-07T02:00:51;5.57;;;1.95;;
52650;SDS011;38537;47.226;39.702;2023-05-07T02:03:18;3.30;;;2.00;;
52650;SDS011;38537;47.226;39.702;2023-05-07T02:05:55;3.30;;;1.80;;
52650;SDS011;38537;47.226;39.702;2023-05-07T02:08:34;2.45;;;1.83;;
52650;SDS011;38537;47.226;39.702;2023-05-07T02:11:01;6.20;;;2.08;;
52650;SDS011;38537;47.226;39.702;2023-05-07T02:13:31;2.95;;;1.80;;
52650;SDS011;38537;47.226;39.702;2023-05-07T02:16:01;4.20;;;2.00;;
52650;SDS011;38537;47.226;39.702;2023-05-07T02:18:29;4.13;;;2.08;;
52650;SDS011;38537;47.226;39.702;2023-05-07T02:20:56;4.57;;;1.95;;
52650;SDS011;38537;47.226;39.702;2023-05-07T02:23:24;3.65;;;1.85;;
52650;SDS011;38537;47.226;39.702;2023-05-07T02:25:51;4.18;;;2.03;;
52650;SDS011;38537;47.226;39.702;2023-05-07T02:28:18;2.67;;;1.80;;
52650;SDS011;38537;47.226;39.702;2023-05-07T02:30:53;8.43;;;2.13;;
52650;SDS011;38537;47.226;39.702;2023-05-07T02:33:20;3.47;;;2.20;;
52650;SDS011;38537;47.226;39.702;2023-05-07T02:35:48;4.75;;;2.40;;
52650;SDS011;38537;47.226;39.702;2023-05-07T02:38:15;3.78;;;1.90;;
52650;SDS011;38537;47.226;39.702;2023-05-07T02:40:43;5.38;;;2.40;;
52650;SDS011;38537;47.226;39.702;2023-05-07T02:43:10;3.67;;;2.20;;
52650;SDS011;38537;47.226;39.702;2023-05-07T02:45:41;3.53;;;1.90;;
52650;SDS011;38537;47.226;39.702;2023-05-07T02:48:11;2.92;;;2.13;;
52650;SDS011;38537;47.226;39.702;2023-05-07T02:50:38;8.93;;;2.20;;
52650;SDS011;38537;47.226;39.702;2023-05-07T02:53:05;5.93;;;2.45;;
52650;SDS011;38537;47.226;39.702;2023-05-07T02:55:33;5.13;;;2.42;;
52650;SDS011;38537;47.226;39.702;2023-05-07T02:58:00;6.03;;;2.10;;
52650;SDS011;38537;47.226;39.702;2023-05-07T03:00:31;4.53;;;2.40;;
52650;SDS011;38537;47.226;39.702;2023-05-07T03:03:15;3.80;;;1.90;;
52650;SDS011;38537;47.226;39.702;2023-05-07T03:05:42;3.47;;;2.10;;
52650;SDS011;38537;47.226;39.702;2023-05-07T03:08:10;4.07;;;2.10;;
52650;SDS011;38537;47.226;39.702;2023-05-07T03:10:37;4.35;;;2.00;;
52650;SDS011;38537;47.226;39.702;2023-05-07T03:13:04;3.10;;;1.95;;
52650;SDS011;38537;47.226;39.702;2023-05-07T03:15:32;7.78;;;2.00;;
52650;SDS011;38537;47.226;39.702;2023-05-07T03:17:59;7.75;;;1.95;;
52650;SDS011;38537;47.226;39.702;2023-05-07T03:20:26;4.80;;;2.13;;
52650;SDS011;38537;47.226;39.702;2023-05-07T03:22:54;4.18;;;2.13;;
52650;SDS011;38537;47.226;39.702;2023-05-07T03:25:21;3.75;;;2.20;;
52650;SDS011;38537;47.226;39.702;2023-05-07T03:27:49;4.90;;;2.70;;
52650;SDS011;38537;47.226;39.702;2023-05-07T03:30:19;3.40;;;2.60;;
52650;SDS011;38537;47.226;39.702;2023-05-07T03:32:47;7.40;;;2.60;;
52650;SDS011;38537;47.226;39.702;2023-05-07T03:35:14;4.18;;;2.47;;
52650;SDS011;38537;47.226;39.702;2023-05-07T03:37:41;8.00;;;3.10;;
52650;SDS011;38537;47.226;39.702;2023-05-07T03:40:10;9.25;;;2.90;;
52650;SDS011;38537;47.226;39.702;2023-05-07T03:42:49;4.40;;;2.70;;
52650;SDS011;38537;47.226;39.702;2023-05-07T03:45:19;6.18;;;2.83;;
52650;SDS011;38537;47.226;39.702;2023-05-07T03:47:55;7.22;;;3.30;;
52650;SDS011;38537;47.226;39.702;2023-05-07T03:50:22;4.90;;;2.97;;
52650;SDS011;38537;47.226;39.702;2023-05-07T03:52:49;8.05;;;4.20;;
52650;SDS011;38537;47.226;39.702;2023-05-07T03:55:19;14.55;;;3.35;;
52650;SDS011;38537;47.226;39.702;2023-05-07T03:57:54;3.08;;;2.58;;
52650;SDS011;38537;47.226;39.702;2023-05-07T04:00:25;3.03;;;2.40;;
52650;SDS011;38537;47.226;39.702;2023-05-07T04:02:57;5.35;;;2.55;;
52650;SDS011;38537;47.226;39.702;2023-05-07T04:05:27;6.55;;;2.97;;
52650;SDS011;38537;47.226;39.702;2023-05-07T04:07:59;6.78;;;3.08;;
52650;SDS011;38537;47.226;39.702;2023-05-07T04:13:05;4.43;;;2.90;;
52650;SDS011;38537;47.226;39.702;2023-05-07T04:15:32;5.07;;;2.85;;
52650;SDS011;38537;47.226;39.702;2023-05-07T04:18:00;4.70;;;2.70;;
52650;SDS011;38537;47.226;39.702;2023-05-07T04:20:27;4.15;;;2.90;;
52650;SDS011;38537;47.226;39.702;2023-05-07T04:23:00;4.20;;;2.55;;
52650;SDS011;38537;47.226;39.702;2023-05-07T04:25:28;4.43;;;2.80;;
52650;SDS011;38537;47.226;39.702;2023-05-07T04:28:10;6.47;;;3.28;;
52650;SDS011;38537;47.226;39.702;2023-05-07T04:30:39;4.47;;;2.60;;
52650;SDS011;38537;47.226;39.702;2023-05-07T04:33:07;3.90;;;2.78;;
52650;SDS011;38537;47.226;39.702;2023-05-07T04:35:35;5.97;;;2.90;;
52650;SDS011;38537;47.226;39.702;2023-05-07T04:38:04;4.90;;;2.70;;
52650;SDS011;38537;47.226;39.702;2023-05-07T04:40:32;3.67;;;2.83;;
52650;SDS011;38537;47.226;39.702;2023-05-07T04:43:01;4.88;;;2.90;;
52650;SDS011;38537;47.226;39.702;2023-05-07T04:45:31;7.25;;;3.22;;
52650;SDS011;38537;47.226;39.702;2023-05-07T04:47:59;4.10;;;3.20;;
52650;SDS011;38537;47.226;39.702;2023-05-07T04:50:27;4.22;;;3.05;;
52650;SDS011;38537;47.226;39.702;2023-05-07T04:52:59;5.03;;;3.20;;
52650;SDS011;38537;47.226;39.702;2023-05-07T04:55:26;6.53;;;3.33;;
52650;SDS011;38537;47.226;39.702;2023-05-07T04:57:53;5.18;;;3.10;;
52650;SDS011;38537;47.226;39.702;2023-05-07T05:00:21;5.45;;;3.03;;
52650;SDS011;38537;47.226;39.702;2023-05-07T05:02:51;4.13;;;2.65;;
52650;SDS011;38537;47.226;39.702;2023-05-07T05:05:21;8.13;;;3.33;;
52650;SDS011;38537;47.226;39.702;2023-05-07T05:07:51;4.13;;;3.38;;
52650;SDS011;38537;47.226;39.702;2023-05-07T05:10:19;4.72;;;3.40;;
52650;SDS011;38537;47.226;39.702;2023-05-07T05:12:49;5.45;;;3.17;;
52650;SDS011;38537;47.226;39.702;2023-05-07T05:15:17;3.25;;;2.70;;
52650;SDS011;38537;47.226;39.702;2023-05-07T05:17:44;3.35;;;2.75;;
52650;SDS011;38537;47.226;39.702;2023-05-07T05:20:11;7.75;;;3.10;;
52650;SDS011;38537;47.226;39.702;2023-05-07T05:22:41;4.68;;;2.97;;
52650;SDS011;38537;47.226;39.702;2023-05-07T05:25:10;5.60;;;3.13;;
52650;SDS011;38537;47.226;39.702;2023-05-07T05:27:38;7.03;;;3.30;;
52650;SDS011;38537;47.226;39.702;2023-05-07T05:30:05;4.97;;;2.80;;
52650;SDS011;38537;47.226;39.702;2023-05-07T05:32:34;5.78;;;2.85;;
52650;SDS011;38537;47.226;39.702;2023-05-07T05:35:02;5.60;;;2.88;;
52650;SDS011;38537;47.226;39.702;2023-05-07T05:37:30;9.30;;;2.92;;
52650;SDS011;38537;47.226;39.702;2023-05-07T05:39:59;6.63;;;2.95;;
52650;SDS011;38537;47.226;39.702;2023-05-07T05:42:31;4.55;;;2.80;;
52650;SDS011;38537;47.226;39.702;2023-05-07T05:44:59;6.20;;;2.90;;
52650;SDS011;38537;47.226;39.702;2023-05-07T05:47:30;5.40;;;2.80;;
52650;SDS011;38537;47.226;39.702;2023-05-07T05:49:58;6.68;;;2.92;;
52650;SDS011;38537;47.226;39.702;2023-05-07T05:52:25;4.35;;;2.80;;
52650;SDS011;38537;47.226;39.702;2023-05-07T05:54:54;5.20;;;3.17;;
52650;SDS011;38537;47.226;39.702;2023-05-07T05:57:21;5.68;;;2.70;;
52650;SDS011;38537;47.226;39.702;2023-05-07T05:59:49;5.25;;;2.97;;
52650;SDS011;38537;47.226;39.702;2023-05-07T06:02:16;9.40;;;3.17;;
52650;SDS011;38537;47.226;39.702;2023-05-07T06:04:44;9.07;;;3.50;;
52650;SDS011;38537;47.226;39.702;2023-05-07T06:07:16;7.40;;;2.78;;
52650;SDS011;38537;47.226;39.702;2023-05-07T06:09:43;6.25;;;3.05;;
52650;SDS011;38537;47.226;39.702;2023-05-07T06:12:11;5.72;;;3.10;;
52650;SDS011;38537;47.226;39.702;2023-05-07T06:14:38;5.30;;;3.05;;
52650;SDS011;38537;47.226;39.702;2023-05-07T06:17:07;5.43;;;2.58;;
52650;SDS011;38537;47.226;39.702;2023-05-07T06:19:35;4.70;;;2.75;;
52650;SDS011;38537;47.226;39.702;2023-05-07T06:22:03;6.35;;;2.20;;
52650;SDS011;38537;47.226;39.702;2023-05-07T06:24:32;5.43;;;2.40;;
52650;SDS011;38537;47.226;39.702;2023-05-07T06:27:00;4.88;;;2.38;;
52650;SDS011;38537;47.226;39.702;2023-05-07T06:29:31;3.60;;;2.17;;
52650;SDS011;38537;47.226;39.702;2023-05-07T06:32:21;4.40;;;2.22;;
52650;SDS011;38537;47.226;39.702;2023-05-07T06:34:50;6.43;;;2.53;;
52650;SDS011;38537;47.226;39.702;2023-05-07T06:37:18;3.78;;;2.20;;
52650;SDS011;38537;47.226;39.702;2023-05-07T06:40:06;8.25;;;2.47;;
52650;SDS011;38537;47.226;39.702;2023-05-07T06:42:37;5.28;;;2.20;;
52650;SDS011;38537;47.226;39.702;2023-05-07T06:45:36;5.43;;;2.38;;
52650;SDS011;38537;47.226;39.702;2023-05-07T06:48:05;8.00;;;2.60;;
52650;SDS011;38537;47.226;39.702;2023-05-07T06:50:43;4.80;;;2.30;;
52650;SDS011;38537;47.226;39.702;2023-05-07T06:53:10;4.47;;;1.90;;
52650;SDS011;38537;47.226;39.702;2023-05-07T06:55:38;8.32;;;2.35;;
52650;SDS011;38537;47.226;39.702;2023-05-07T06:58:05;5.75;;;2.10;;
52650;SDS011;38537;47.226;39.702;2023-05-07T07:00:33;4.43;;;2.05;;
52650;SDS011;38537;47.226;39.702;2023-05-07T07:03:00;5.35;;;2.13;;
52650;SDS011;38537;47.226;39.702;2023-05-07T07:05:29;5.63;;;2.40;;
52650;SDS011;38537;47.226;39.702;2023-05-07T07:07:57;7.25;;;2.13;;
52650;SDS011;38537;47.226;39.702;2023-05-07T07:10:25;7.68;;;2.40;;
52650;SDS011;38537;47.226;39.702;2023-05-07T07:12:53;4.80;;;2.63;;
52650;SDS011;38537;47.226;39.702;2023-05-07T07:15:21;6.93;;;2.30;;
52650;SDS011;38537;47.226;39.702;2023-05-07T07:17:49;7.38;;;2.58;;
52650;SDS011;38537;47.226;39.702;2023-05-07T07:20:17;4.13;;;2.38;;
52650;SDS011;38537;47.226;39.702;2023-05-07T07:22:47;5.60;;;2.58;;
52650;SDS011;38537;47.226;39.702;2023-05-07T07:25:16;7.40;;;2.67;;
52650;SDS011;38537;47.226;39.702;2023-05-07T07:27:43;7.57;;;2.53;;
52650;SDS011;38537;47.226;39.702;2023-05-07T07:30:13;6.43;;;2.58;;
52650;SDS011;38537;47.226;39.702;2023-05-07T07:32:44;5.03;;;2.50;;
52650;SDS011;38537;47.226;39.702;2023-05-07T07:35:12;5.30;;;2.85;;
52650;SDS011;38537;47.226;39.702;2023-05-07T07:37:39;5.53;;;2.45;;
52650;SDS011;38537;47.226;39.702;2023-05-07T07:40:06;5.13;;;2.60;;
52650;SDS011;38537;47.226;39.702;2023-05-07T07:42:35;6.13;;;2.90;;
52650;SDS011;38537;47.226;39.702;2023-05-07T07:45:03;3.45;;;2.63;;
52650;SDS011;38537;47.226;39.702;2023-05-07T07:47:33;6.88;;;2.85;;
52650;SDS011;38537;47.226;39.702;2023-05-07T07:50:01;5.60;;;2.67;;
52650;SDS011;38537;47.226;39.702;2023-05-07T07:52:30;4.13;;;2.58;;
52650;SDS011;38537;47.226;39.702;2023-05-07T07:54:57;5.25;;;2.70;;
52650;SDS011;38537;47.226;39.702;2023-05-07T07:57:24;6.68;;;2.70;;
52650;SDS011;38537;47.226;39.702;2023-05-07T07:59:54;4.07;;;3.10;;
52650;SDS011;38537;47.226;39.702;2023-05-07T08:02:21;9.73;;;2.95;;
52650;SDS011;38537;47.226;39.702;2023-05-07T08:04:49;6.93;;;2.78;;
52650;SDS011;38537;47.226;39.702;2023-05-07T08:07:17;7.10;;;3.17;;
52650;SDS011;38537;47.226;39.702;2023-05-07T08:09:48;6.18;;;3.40;;
52650;SDS011;38537;47.226;39.702;2023-05-07T08:12:22;6.93;;;3.40;;
52650;SDS011;38537;47.226;39.702;2023-05-07T08:14:49;5.85;;;3.53;;
52650;SDS011;38537;47.226;39.702;2023-05-07T08:17:17;10.82;;;4.25;;
52650;SDS011;38537;47.226;39.702;2023-05-07T08:19:45;9.90;;;3.90;;
52650;SDS011;38537;47.226;39.702;2023-05-07T08:22:13;5.32;;;3.97;;
52650;SDS011;38537;47.226;39.702;2023-05-07T08:24:41;6.53;;;3.92;;
52650;SDS011;38537;47.226;39.702;2023-05-07T08:27:09;7.03;;;4.07;;
52650;SDS011;38537;47.226;39.702;2023-05-07T08:29:39;6.47;;;3.70;;
52650;SDS011;38537;47.226;39.702;2023-05-07T08:32:07;7.75;;;3.80;;
52650;SDS011;38537;47.226;39.702;2023-05-07T08:34:34;6.45;;;3.70;;
52650;SDS011;38537;47.226;39.702;2023-05-07T08:37:04;6.78;;;4.10;;
52650;SDS011;38537;47.226;39.702;2023-05-07T08:39:31;6.78;;;4.00;;
52650;SDS011;38537;47.226;39.702;2023-05-07T08:42:00;5.25;;;4.07;;
52650;SDS011;38537;47.226;39.702;2023-05-07T08:44:33;6.50;;;4.30;;
52650;SDS011;38537;47.226;39.702;2023-05-07T08:47:05;5.70;;;4.13;;
52650;SDS011;38537;47.226;39.702;2023-05-07T08:49:34;6.28;;;4.00;;
52650;SDS011;38537;47.226;39.702;2023-05-07T08:52:03;10.13;;;4.20;;
52650;SDS011;38537;47.226;39.702;2023-05-07T08:54:30;5.88;;;3.88;;
52650;SDS011;38537;47.226;39.702;2023-05-07T08:56:58;5.13;;;4.32;;
52650;SDS011;38537;47.226;39.702;2023-05-07T08:59:26;4.40;;;3.95;;
52650;SDS011;38537;47.226;39.702;2023-05-07T09:01:53;5.57;;;4.15;;
52650;SDS011;38537;47.226;39.702;2023-05-07T09:04:20;7.10;;;4.25;;
52650;SDS011;38537;47.226;39.702;2023-05-07T09:06:47;5.68;;;4.20;;
52650;SDS011;38537;47.226;39.702;2023-05-07T09:09:16;5.80;;;4.22;;
52650;SDS011;38537;47.226;39.702;2023-05-07T09:11:47;6.10;;;4.22;;
52650;SDS011;38537;47.226;39.702;2023-05-07T09:14:18;5.45;;;3.80;;
52650;SDS011;38537;47.226;39.702;2023-05-07T09:16:48;5.32;;;4.43;;
52650;SDS011;38537;47.226;39.702;2023-05-07T09:19:16;6.22;;;4.18;;
52650;SDS011;38537;47.226;39.702;2023-05-07T09:22:00;6.00;;;4.30;;
52650;SDS011;38537;47.226;39.702;2023-05-07T09:24:50;6.35;;;4.10;;
52650;SDS011;38537;47.226;39.702;2023-05-07T09:27:21;6.30;;;4.20;;
52650;SDS011;38537;47.226;39.702;2023-05-07T09:29:48;4.20;;;3.80;;
52650;SDS011;38537;47.226;39.702;2023-05-07T09:32:17;4.72;;;3.90;;
52650;SDS011;38537;47.226;39.702;2023-05-07T09:34:45;6.85;;;3.92;;
52650;SDS011;38537;47.226;39.702;2023-05-07T09:37:16;6.40;;;4.30;;
52650;SDS011;38537;47.226;39.702;2023-05-07T09:39:46;7.05;;;4.22;;
52650;SDS011;38537;47.226;39.702;2023-05-07T09:42:22;6.85;;;4.10;;
52650;SDS011;38537;47.226;39.702;2023-05-07T09:44:52;5.85;;;3.88;;
52650;SDS011;38537;47.226;39.702;2023-05-07T09:47:23;5.68;;;4.43;;
52650;SDS011;38537;47.226;39.702;2023-05-07T09:49:55;7.43;;;4.78;;
52650;SDS011;38537;47.226;39.702;2023-05-07T09:52:25;6.63;;;4.65;;
52650;SDS011;38537;47.226;39.702;2023-05-07T09:55:04;7.05;;;4.45;;
52650;SDS011;38537;47.226;39.702;2023-05-07T09:57:33;5.70;;;4.00;;
52650;SDS011;38537;47.226;39.702;2023-05-07T10:00:05;5.25;;;4.00;;
52650;SDS011;38537;47.226;39.702;2023-05-07T10:02:49;6.28;;;4.15;;
52650;SDS011;38537;47.226;39.702;2023-05-07T10:05:27;5.82;;;4.30;;
52650;SDS011;38537;47.226;39.702;2023-05-07T10:07:57;7.53;;;4.97;;
52650;SDS011;38537;47.226;39.702;2023-05-07T10:10:26;5.80;;;4.30;;
52650;SDS011;38537;47.226;39.702;2023-05-07T10:12:55;7.85;;;4.68;;
52650;SDS011;38537;47.226;39.702;2023-05-07T10:15:29;7.05;;;4.97;;
52650;SDS011;38537;47.226;39.702;2023-05-07T10:17:59;6.30;;;4.88;;
52650;SDS011;38537;47.226;39.702;2023-05-07T10:20:28;5.15;;;4.57;;
52650;SDS011;38537;47.226;39.702;2023-05-07T10:22:56;5.18;;;4.40;;
52650;SDS011;38537;47.226;39.702;2023-05-07T10:25:33;4.95;;;4.45;;
52650;SDS011;38537;47.226;39.702;2023-05-07T10:28:07;7.95;;;4.28;;
52650;SDS011;38537;47.226;39.702;2023-05-07T10:33:26;6.37;;;4.57;;
52650;SDS011;38537;47.226;39.702;2023-05-07T10:35:57;6.90;;;4.55;;
52650;SDS011;38537;47.226;39.702;2023-05-07T10:38:28;5.93;;;4.60;;
52650;SDS011;38537;47.226;39.702;2023-05-07T10:40:58;7.22;;;4.40;;
52650;SDS011;38537;47.226;39.702;2023-05-07T10:43:38;6.25;;;4.68;;
52650;SDS011;38537;47.226;39.702;2023-05-07T10:46:17;5.32;;;4.30;;
52650;SDS011;38537;47.226;39.702;2023-05-07T10:49:09;6.15;;;4.63;;
52650;SDS011;38537;47.226;39.702;2023-05-07T10:52:09;5.20;;;4.40;;
52650;SDS011;38537;47.226;39.702;2023-05-07T11:01:09;7.55;;;4.20;;
52650;SDS011;38537;47.226;39.702;2023-05-07T11:04:12;6.45;;;5.45;;
52650;SDS011;38537;47.226;39.702;2023-05-07T11:15:13;8.43;;;4.15;;
52650;SDS011;38537;47.226;39.702;2023-05-07T11:17:56;6.97;;;4.88;;
52650;SDS011;38537;47.226;39.702;2023-05-07T11:26:15;8.90;;;5.00;;
52650;SDS011;38537;47.226;39.702;2023-05-07T11:28:44;7.05;;;4.97;;
52650;SDS011;38537;47.226;39.702;2023-05-07T11:31:11;8.48;;;4.70;;
52650;SDS011;38537;47.226;39.702;2023-05-07T11:33:39;4.95;;;4.03;;
52650;SDS011;38537;47.226;39.702;2023-05-07T11:36:12;6.68;;;4.22;;
52650;SDS011;38537;47.226;39.702;2023-05-07T11:38:45;6.05;;;4.13;;
52650;SDS011;38537;47.226;39.702;2023-05-07T11:41:13;5.78;;;4.38;;
52650;SDS011;38537;47.226;39.702;2023-05-07T11:44:14;6.45;;;4.47;;
52650;SDS011;38537;47.226;39.702;2023-05-07T11:46:34;7.90;;;5.30;;
52650;SDS011;38537;47.226;39.702;2023-05-07T11:49:03;6.13;;;4.70;;
52650;SDS011;38537;47.226;39.702;2023-05-07T11:51:31;5.57;;;4.70;;
52650;SDS011;38537;47.226;39.702;2023-05-07T11:53:58;6.20;;;5.20;;
52650;SDS011;38537;47.226;39.702;2023-05-07T11:56:25;6.32;;;5.40;;
52650;SDS011;38537;47.226;39.702;2023-05-07T11:58:52;7.57;;;5.10;;
52650;SDS011;38537;47.226;39.702;2023-05-07T12:01:20;7.88;;;5.72;;
52650;SDS011;38537;47.226;39.702;2023-05-07T12:03:47;6.65;;;5.28;;
52650;SDS011;38537;47.226;39.702;2023-05-07T12:06:15;6.22;;;5.47;;
52650;SDS011;38537;47.226;39.702;2023-05-07T12:08:46;8.02;;;5.30;;
52650;SDS011;38537;47.226;39.702;2023-05-07T12:11:24;6.28;;;5.63;;
52650;SDS011;38537;47.226;39.702;2023-05-07T12:13:56;5.75;;;5.15;;
52650;SDS011;38537;47.226;39.702;2023-05-07T12:16:25;7.65;;;5.57;;
52650;SDS011;38537;47.226;39.702;2023-05-07T12:18:54;6.15;;;5.40;;
52650;SDS011;38537;47.226;39.702;2023-05-07T12:21:22;6.38;;;5.10;;
52650;SDS011;38537;47.226;39.702;2023-05-07T12:23:51;10.00;;;5.65;;
52650;SDS011;38537;47.226;39.702;2023-05-07T12:26:19;6.45;;;5.20;;
52650;SDS011;38537;47.226;39.702;2023-05-07T12:28:49;7.00;;;4.90;;
52650;SDS011;38537;47.226;39.702;2023-05-07T12:31:17;7.05;;;5.20;;
52650;SDS011;38537;47.226;39.702;2023-05-07T12:33:45;5.93;;;4.78;;
52650;SDS011;38537;47.226;39.702;2023-05-07T12:36:12;8.27;;;4.95;;
52650;SDS011;38537;47.226;39.702;2023-05-07T12:38:40;9.27;;;7.55;;
52650;SDS011;38537;47.226;39.702;2023-05-07T12:41:08;7.38;;;5.20;;
52650;SDS011;38537;47.226;39.702;2023-05-07T12:43:38;7.70;;;5.18;;
52650;SDS011;38537;47.226;39.702;2023-05-07T12:46:06;6.80;;;4.80;;
52650;SDS011;38537;47.226;39.702;2023-05-07T12:48:35;8.45;;;4.90;;
52650;SDS011;38537;47.226;39.702;2023-05-07T12:51:04;5.68;;;4.53;;
52650;SDS011;38537;47.226;39.702;2023-05-07T12:53:33;6.60;;;5.47;;
52650;SDS011;38537;47.226;39.702;2023-05-07T12:56:06;6.75;;;5.30;;
52650;SDS011;38537;47.226;39.702;2023-05-07T12:58:33;5.72;;;5.07;;
52650;SDS011;38537;47.226;39.702;2023-05-07T13:01:06;8.63;;;4.70;;
52650;SDS011;38537;47.226;39.702;2023-05-07T13:03:37;5.43;;;4.78;;
52650;SDS011;38537;47.226;39.702;2023-05-07T13:06:09;5.10;;;4.60;;
52650;SDS011;38537;47.226;39.702;2023-05-07T13:08:38;5.20;;;4.57;;
52650;SDS011;38537;47.226;39.702;2023-05-07T13:11:10;6.93;;;4.60;;
52650;SDS011;38537;47.226;39.702;2023-05-07T13:13:39;5.07;;;4.43;;
52650;SDS011;38537;47.226;39.702;2023-05-07T13:16:11;6.15;;;4.53;;
52650;SDS011;38537;47.226;39.702;2023-05-07T13:18:39;5.28;;;4.45;;
52650;SDS011;38537;47.226;39.702;2023-05-07T13:21:07;4.80;;;4.20;;
52650;SDS011;38537;47.226;39.702;2023-05-07T13:23:34;5.22;;;4.15;;
52650;SDS011;38537;47.226;39.702;2023-05-07T13:26:02;8.00;;;4.63;;
52650;SDS011;38537;47.226;39.702;2023-05-07T13:28:40;5.00;;;4.30;;
52650;SDS011;38537;47.226;39.702;2023-05-07T13:31:08;6.43;;;4.13;;
52650;SDS011;38537;47.226;39.702;2023-05-07T13:33:36;4.95;;;4.45;;
52650;SDS011;38537;47.226;39.702;2023-05-07T13:36:03;5.50;;;4.32;;
52650;SDS011;38537;47.226;39.702;2023-05-07T13:38:33;6.80;;;4.47;;
52650;SDS011;38537;47.226;39.702;2023-05-07T13:41:01;6.07;;;4.57;;
52650;SDS011;38537;47.226;39.702;2023-05-07T13:43:28;6.32;;;5.35;;
52650;SDS011;38537;47.226;39.702;2023-05-07T13:45:55;6.72;;;4.88;;
52650;SDS011;38537;47.226;39.702;2023-05-07T13:48:22;9.48;;;5.47;;
52650;SDS011;38537;47.226;39.702;2023-05-07T13:50:50;5.80;;;4.80;;
52650;SDS011;38537;47.226;39.702;2023-05-07T13:53:18;5.70;;;4.45;;
52650;SDS011;38537;47.226;39.702;2023-05-07T13:55:45;7.13;;;4.63;;
52650;SDS011;38537;47.226;39.702;2023-05-07T13:58:13;6.07;;;5.40;;
52650;SDS011;38537;47.226;39.702;2023-05-07T14:00:40;7.47;;;4.60;;
52650;SDS011;38537;47.226;39.702;2023-05-07T14:03:08;5.63;;;4.75;;
52650;SDS011;38537;47.226;39.702;2023-05-07T14:05:35;6.75;;;5.05;;
52650;SDS011;38537;47.226;39.702;2023-05-07T14:08:02;5.70;;;4.95;;
52650;SDS011;38537;47.226;39.702;2023-05-07T14:10:31;6.20;;;5.40;;
52650;SDS011;38537;47.226;39.702;2023-05-07T14:13:01;6.15;;;5.55;;
52650;SDS011;38537;47.226;39.702;2023-05-07T14:15:28;7.38;;;5.38;;
52650;SDS011;38537;47.226;39.702;2023-05-07T14:17:56;5.90;;;4.95;;
52650;SDS011;38537;47.226;39.702;2023-05-07T14:20:25;6.43;;;5.10;;
52650;SDS011;38537;47.226;39.702;2023-05-07T14:22:53;7.78;;;5.43;;
52650;SDS011;38537;47.226;39.702;2023-05-07T14:25:23;10.10;;;6.45;;
52650;SDS011;38537;47.226;39.702;2023-05-07T14:27:51;7.90;;;6.60;;
52650;SDS011;38537;47.226;39.702;2023-05-07T14:30:18;8.18;;;6.32;;
52650;SDS011;38537;47.226;39.702;2023-05-07T14:32:45;6.15;;;5.53;;
52650;SDS011;38537;47.226;39.702;2023-05-07T14:35:12;7.18;;;5.07;;
52650;SDS011;38537;47.226;39.702;2023-05-07T14:37:40;7.22;;;5.85;;
52650;SDS011;38537;47.226;39.702;2023-05-07T14:40:08;8.90;;;7.47;;
52650;SDS011;38537;47.226;39.702;2023-05-07T14:42:36;6.53;;;5.82;;
52650;SDS011;38537;47.226;39.702;2023-05-07T14:45:03;7.18;;;5.32;;
52650;SDS011;38537;47.226;39.702;2023-05-07T14:47:34;7.95;;;5.20;;
52650;SDS011;38537;47.226;39.702;2023-05-07T14:50:01;6.97;;;5.38;;
52650;SDS011;38537;47.226;39.702;2023-05-07T14:52:29;6.97;;;5.57;;
52650;SDS011;38537;47.226;39.702;2023-05-07T14:54:57;7.72;;;5.57;;
52650;SDS011;38537;47.226;39.702;2023-05-07T14:57:24;9.38;;;5.78;;
52650;SDS011;38537;47.226;39.702;2023-05-07T14:59:51;6.10;;;5.50;;
52650;SDS011;38537;47.226;39.702;2023-05-07T15:02:18;7.80;;;5.57;;
52650;SDS011;38537;47.226;39.702;2023-05-07T15:04:47;7.13;;;5.43;;
52650;SDS011;38537;47.226;39.702;2023-05-07T15:07:15;7.45;;;5.35;;
52650;SDS011;38537;47.226;39.702;2023-05-07T15:09:43;8.98;;;5.55;;
52650;SDS011;38537;47.226;39.702;2023-05-07T15:12:11;6.47;;;5.30;;
52650;SDS011;38537;47.226;39.702;2023-05-07T15:14:38;7.70;;;5.60;;